sensor_id;sensor_type;location;lat;lon;timestamp;P1;durP1;ratioP1;P2;durP2;ratioP2
10461;SDS011;5278;42.656;23.374;2023-02-28T00:00:13;10.20;;;7.90;;
10461;SDS011;5278;42.656;23.374;2023-02-28T00:02:41;13.47;;;10.07;;
10461;SDS011;5278;42.656;23.374;2023-02-28T00:05:09;13.67;;;9.00;;
10461;SDS011;5278;42.656;23.374;2023-02-28T00:07:41;12.83;;;10.40;;
10461;SDS011;5278;42.656;23.374;2023-02-28T00:10:09;13.53;;;10.47;;
10461;SDS011;5278;42.656;23.374;2023-02-28T00:12:39;13.37;;;10.60;;
10461;SDS011;5278;42.656;23.374;2023-02-28T00:15:06;14.13;;;10.63;;
10461;SDS011;5278;42.656;23.374;2023-02-28T00:17:34;14.47;;;11.03;;
10461;SDS011;5278;42.656;23.374;2023-02-28T00:20:02;16.80;;;10.63;;
10461;SDS011;5278;42.656;23.374;2023-02-28T00:22:38;17.23;;;11.50;;
10461;SDS011;5278;42.656;23.374;2023-02-28T00:25:07;15.57;;;11.37;;
10461;SDS011;5278;42.656;23.374;2023-02-28T00:27:36;14.00;;;10.60;;
10461;SDS011;5278;42.656;23.374;2023-02-28T00:30:08;14.37;;;10.70;;
10461;SDS011;5278;42.656;23.374;2023-02-28T00:32:37;17.57;;;11.03;;
10461;SDS011;5278;42.656;23.374;2023-02-28T00:35:05;16.53;;;10.67;;
10461;SDS011;5278;42.656;23.374;2023-02-28T00:37:33;18.17;;;11.90;;
10461;SDS011;5278;42.656;23.374;2023-02-28T00:40:01;14.63;;;10.63;;
10461;SDS011;5278;42.656;23.374;2023-02-28T00:42:30;15.47;;;10.87;;
10461;SDS011;5278;42.656;23.374;2023-02-28T00:44:57;16.20;;;10.03;;
10461;SDS011;5278;42.656;23.374;2023-02-28T00:47:26;16.83;;;11.87;;
10461;SDS011;5278;42.656;23.374;2023-02-28T00:49:53;18.13;;;11.53;;
10461;SDS011;5278;42.656;23.374;2023-02-28T00:52:20;18.03;;;11.13;;
10461;SDS011;5278;42.656;23.374;2023-02-28T00:54:47;17.93;;;12.37;;
10461;SDS011;5278;42.656;23.374;2023-02-28T00:57:14;16.97;;;12.07;;
10461;SDS011;5278;42.656;23.374;2023-02-28T00:59:41;16.60;;;11.73;;
10461;SDS011;5278;42.656;23.374;2023-02-28T01:02:08;17.93;;;12.63;;
10461;SDS011;5278;42.656;23.374;2023-02-28T01:04:36;19.23;;;12.43;;
10461;SDS011;5278;42.656;23.374;2023-02-28T01:07:03;16.73;;;11.50;;
10461;SDS011;5278;42.656;23.374;2023-02-28T01:09:32;17.53;;;11.87;;
10461;SDS011;5278;42.656;23.374;2023-02-28T01:11:59;16.37;;;13.27;;
10461;SDS011;5278;42.656;23.374;2023-02-28T01:14:26;19.20;;;12.97;;
10461;SDS011;5278;42.656;23.374;2023-02-28T01:16:54;18.77;;;11.93;;
10461;SDS011;5278;42.656;23.374;2023-02-28T01:19:22;21.10;;;12.93;;
10461;SDS011;5278;42.656;23.374;2023-02-28T01:21:50;19.97;;;13.30;;
10461;SDS011;5278;42.656;23.374;2023-02-28T01:24:17;17.30;;;13.23;;
10461;SDS011;5278;42.656;23.374;2023-02-28T01:26:47;18.30;;;12.57;;
10461;SDS011;5278;42.656;23.374;2023-02-28T01:29:14;18.63;;;12.53;;
10461;SDS011;5278;42.656;23.374;2023-02-28T01:31:41;17.50;;;12.43;;
10461;SDS011;5278;42.656;23.374;2023-02-28T01:34:08;17.93;;;13.60;;
10461;SDS011;5278;42.656;23.374;2023-02-28T01:36:38;19.53;;;13.40;;
10461;SDS011;5278;42.656;23.374;2023-02-28T01:39:07;19.80;;;13.50;;
10461;SDS011;5278;42.656;23.374;2023-02-28T01:41:34;19.33;;;13.00;;
10461;SDS011;5278;42.656;23.374;2023-02-28T01:44:03;20.40;;;12.93;;
10461;SDS011;5278;42.656;23.374;2023-02-28T01:46:32;21.30;;;13.77;;
10461;SDS011;5278;42.656;23.374;2023-02-28T01:49:02;20.90;;;12.17;;
10461;SDS011;5278;42.656;23.374;2023-02-28T01:51:34;18.40;;;13.60;;
10461;SDS011;5278;42.656;23.374;2023-02-28T01:54:07;19.83;;;12.47;;
10461;SDS011;5278;42.656;23.374;2023-02-28T01:56:39;18.90;;;12.27;;
10461;SDS011;5278;42.656;23.374;2023-02-28T01:59:12;18.67;;;12.90;;
10461;SDS011;5278;42.656;23.374;2023-02-28T02:01:43;19.33;;;13.00;;
10461;SDS011;5278;42.656;23.374;2023-02-28T02:04:10;20.50;;;13.33;;
10461;SDS011;5278;42.656;23.374;2023-02-28T02:06:40;19.70;;;13.10;;
10461;SDS011;5278;42.656;23.374;2023-02-28T02:09:13;20.87;;;13.23;;
10461;SDS011;5278;42.656;23.374;2023-02-28T02:11:40;21.33;;;13.47;;
10461;SDS011;5278;42.656;23.374;2023-02-28T02:14:16;20.97;;;13.93;;
10461;SDS011;5278;42.656;23.374;2023-02-28T02:17:07;18.53;;;13.67;;
10461;SDS011;5278;42.656;23.374;2023-02-28T02:19:53;23.60;;;14.60;;
10461;SDS011;5278;42.656;23.374;2023-02-28T02:22:51;21.70;;;14.63;;
10461;SDS011;5278;42.656;23.374;2023-02-28T02:25:42;24.23;;;15.63;;
10461;SDS011;5278;42.656;23.374;2023-02-28T02:31:23;19.83;;;14.00;;
10461;SDS011;5278;42.656;23.374;2023-02-28T02:34:20;23.80;;;14.87;;
10461;SDS011;5278;42.656;23.374;2023-02-28T02:36:58;21.37;;;14.67;;
10461;SDS011;5278;42.656;23.374;2023-02-28T02:39:31;24.27;;;15.07;;
10461;SDS011;5278;42.656;23.374;2023-02-28T02:42:09;22.00;;;15.07;;
10461;SDS011;5278;42.656;23.374;2023-02-28T02:44:42;24.70;;;14.47;;
10461;SDS011;5278;42.656;23.374;2023-02-28T02:47:18;18.97;;;13.87;;
10461;SDS011;5278;42.656;23.374;2023-02-28T02:49:54;23.77;;;14.77;;
10461;SDS011;5278;42.656;23.374;2023-02-28T02:52:25;24.50;;;14.70;;
10461;SDS011;5278;42.656;23.374;2023-02-28T02:54:59;21.90;;;13.63;;
10461;SDS011;5278;42.656;23.374;2023-02-28T02:57:29;21.93;;;14.17;;
10461;SDS011;5278;42.656;23.374;2023-02-28T03:00:02;23.90;;;14.50;;
10461;SDS011;5278;42.656;23.374;2023-02-28T03:02:33;20.83;;;14.63;;
10461;SDS011;5278;42.656;23.374;2023-02-28T03:05:04;19.00;;;14.33;;
10461;SDS011;5278;42.656;23.374;2023-02-28T03:07:35;23.17;;;14.23;;
10461;SDS011;5278;42.656;23.374;2023-02-28T03:10:02;21.17;;;15.13;;
10461;SDS011;5278;42.656;23.374;2023-02-28T03:12:32;19.47;;;14.07;;
10461;SDS011;5278;42.656;23.374;2023-02-28T03:15:08;24.30;;;15.17;;
10461;SDS011;5278;42.656;23.374;2023-02-28T03:17:47;22.87;;;15.00;;
10461;SDS011;5278;42.656;23.374;2023-02-28T03:20:30;22.40;;;15.27;;
10461;SDS011;5278;42.656;23.374;2023-02-28T03:23:08;21.73;;;14.57;;
10461;SDS011;5278;42.656;23.374;2023-02-28T03:25:45;25.07;;;16.03;;
10461;SDS011;5278;42.656;23.374;2023-02-28T03:28:24;23.43;;;15.50;;
10461;SDS011;5278;42.656;23.374;2023-02-28T03:31:00;27.80;;;16.97;;
10461;SDS011;5278;42.656;23.374;2023-02-28T03:33:36;28.47;;;17.97;;
10461;SDS011;5278;42.656;23.374;2023-02-28T03:36:10;29.20;;;18.87;;
10461;SDS011;5278;42.656;23.374;2023-02-28T03:38:40;26.50;;;17.57;;
10461;SDS011;5278;42.656;23.374;2023-02-28T03:41:12;24.43;;;16.73;;
10461;SDS011;5278;42.656;23.374;2023-02-28T03:43:44;30.23;;;17.73;;
10461;SDS011;5278;42.656;23.374;2023-02-28T03:46:18;29.20;;;19.00;;
10461;SDS011;5278;42.656;23.374;2023-02-28T03:48:49;28.63;;;17.73;;
10461;SDS011;5278;42.656;23.374;2023-02-28T03:51:24;29.97;;;18.03;;
10461;SDS011;5278;42.656;23.374;2023-02-28T03:53:56;28.17;;;18.07;;
10461;SDS011;5278;42.656;23.374;2023-02-28T03:56:27;34.47;;;17.33;;
10461;SDS011;5278;42.656;23.374;2023-02-28T03:59:00;32.23;;;19.07;;
10461;SDS011;5278;42.656;23.374;2023-02-28T04:01:31;34.93;;;19.47;;
10461;SDS011;5278;42.656;23.374;2023-02-28T04:04:03;31.23;;;18.53;;
10461;SDS011;5278;42.656;23.374;2023-02-28T04:06:32;33.13;;;19.07;;
10461;SDS011;5278;42.656;23.374;2023-02-28T04:09:00;30.87;;;18.03;;
10461;SDS011;5278;42.656;23.374;2023-02-28T04:11:30;30.83;;;19.10;;
10461;SDS011;5278;42.656;23.374;2023-02-28T04:14:01;28.67;;;17.93;;
10461;SDS011;5278;42.656;23.374;2023-02-28T04:16:29;30.93;;;18.33;;
10461;SDS011;5278;42.656;23.374;2023-02-28T04:18:56;31.67;;;18.37;;
10461;SDS011;5278;42.656;23.374;2023-02-28T04:21:27;32.30;;;19.73;;
10461;SDS011;5278;42.656;23.374;2023-02-28T04:23:55;29.30;;;17.30;;
10461;SDS011;5278;42.656;23.374;2023-02-28T04:26:25;28.83;;;17.53;;
10461;SDS011;5278;42.656;23.374;2023-02-28T04:28:56;29.03;;;17.53;;
10461;SDS011;5278;42.656;23.374;2023-02-28T04:31:23;28.07;;;18.67;;
10461;SDS011;5278;42.656;23.374;2023-02-28T04:33:50;30.07;;;18.13;;
10461;SDS011;5278;42.656;23.374;2023-02-28T04:36:17;28.67;;;17.37;;
10461;SDS011;5278;42.656;23.374;2023-02-28T04:38:44;22.63;;;15.60;;
10461;SDS011;5278;42.656;23.374;2023-02-28T04:41:15;34.60;;;18.73;;
10461;SDS011;5278;42.656;23.374;2023-02-28T04:43:42;35.90;;;18.87;;
10461;SDS011;5278;42.656;23.374;2023-02-28T04:46:12;30.10;;;18.23;;
10461;SDS011;5278;42.656;23.374;2023-02-28T04:48:43;27.87;;;17.50;;
10461;SDS011;5278;42.656;23.374;2023-02-28T04:51:11;32.70;;;19.03;;
10461;SDS011;5278;42.656;23.374;2023-02-28T04:53:40;32.50;;;21.00;;
10461;SDS011;5278;42.656;23.374;2023-02-28T04:56:08;38.60;;;22.83;;
10461;SDS011;5278;42.656;23.374;2023-02-28T04:58:39;42.20;;;23.13;;
10461;SDS011;5278;42.656;23.374;2023-02-28T05:01:07;42.27;;;23.83;;
10461;SDS011;5278;42.656;23.374;2023-02-28T05:03:42;38.50;;;23.27;;
10461;SDS011;5278;42.656;23.374;2023-02-28T05:06:10;46.03;;;25.83;;
10461;SDS011;5278;42.656;23.374;2023-02-28T05:08:40;69.70;;;27.50;;
10461;SDS011;5278;42.656;23.374;2023-02-28T05:11:15;42.00;;;24.13;;
10461;SDS011;5278;42.656;23.374;2023-02-28T05:13:46;45.93;;;23.77;;
10461;SDS011;5278;42.656;23.374;2023-02-28T05:16:13;40.07;;;23.30;;
10461;SDS011;5278;42.656;23.374;2023-02-28T05:18:41;39.67;;;24.63;;
10461;SDS011;5278;42.656;23.374;2023-02-28T05:21:16;42.93;;;25.57;;
10461;SDS011;5278;42.656;23.374;2023-02-28T05:23:54;37.33;;;23.03;;
10461;SDS011;5278;42.656;23.374;2023-02-28T05:26:23;42.90;;;23.57;;
10461;SDS011;5278;42.656;23.374;2023-02-28T05:28:52;41.00;;;24.40;;
10461;SDS011;5278;42.656;23.374;2023-02-28T05:31:20;38.10;;;24.77;;
10461;SDS011;5278;42.656;23.374;2023-02-28T05:33:47;43.67;;;23.80;;
10461;SDS011;5278;42.656;23.374;2023-02-28T05:36:14;43.80;;;25.43;;
10461;SDS011;5278;42.656;23.374;2023-02-28T05:38:45;45.07;;;25.30;;
10461;SDS011;5278;42.656;23.374;2023-02-28T05:41:13;40.13;;;23.57;;
10461;SDS011;5278;42.656;23.374;2023-02-28T05:43:40;36.93;;;22.80;;
10461;SDS011;5278;42.656;23.374;2023-02-28T05:46:10;41.17;;;22.87;;
10461;SDS011;5278;42.656;23.374;2023-02-28T05:48:38;37.80;;;22.03;;
10461;SDS011;5278;42.656;23.374;2023-02-28T05:51:05;40.47;;;21.53;;
10461;SDS011;5278;42.656;23.374;2023-02-28T05:53:33;44.80;;;23.80;;
10461;SDS011;5278;42.656;23.374;2023-02-28T05:56:00;42.93;;;22.63;;
10461;SDS011;5278;42.656;23.374;2023-02-28T05:58:27;35.83;;;19.57;;
10461;SDS011;5278;42.656;23.374;2023-02-28T06:00:57;32.53;;;19.93;;
10461;SDS011;5278;42.656;23.374;2023-02-28T06:03:26;35.27;;;20.77;;
10461;SDS011;5278;42.656;23.374;2023-02-28T06:05:53;40.10;;;23.57;;
10461;SDS011;5278;42.656;23.374;2023-02-28T06:08:20;39.77;;;22.80;;
10461;SDS011;5278;42.656;23.374;2023-02-28T06:10:47;35.47;;;20.67;;
10461;SDS011;5278;42.656;23.374;2023-02-28T06:13:14;40.43;;;22.97;;
10461;SDS011;5278;42.656;23.374;2023-02-28T06:15:41;40.60;;;23.83;;
10461;SDS011;5278;42.656;23.374;2023-02-28T06:18:08;33.17;;;21.20;;
10461;SDS011;5278;42.656;23.374;2023-02-28T06:20:37;35.00;;;21.63;;
10461;SDS011;5278;42.656;23.374;2023-02-28T06:23:03;33.67;;;20.40;;
10461;SDS011;5278;42.656;23.374;2023-02-28T06:25:30;35.50;;;21.90;;
10461;SDS011;5278;42.656;23.374;2023-02-28T06:27:57;30.20;;;19.10;;
10461;SDS011;5278;42.656;23.374;2023-02-28T06:30:24;35.13;;;20.87;;
10461;SDS011;5278;42.656;23.374;2023-02-28T06:32:53;34.20;;;20.60;;
10461;SDS011;5278;42.656;23.374;2023-02-28T06:35:21;29.83;;;18.50;;
10461;SDS011;5278;42.656;23.374;2023-02-28T06:37:50;35.87;;;20.83;;
10461;SDS011;5278;42.656;23.374;2023-02-28T06:40:17;36.90;;;21.43;;
10461;SDS011;5278;42.656;23.374;2023-02-28T06:42:44;36.83;;;22.60;;
10461;SDS011;5278;42.656;23.374;2023-02-28T06:45:11;38.57;;;22.90;;
10461;SDS011;5278;42.656;23.374;2023-02-28T06:47:39;37.90;;;22.07;;
10461;SDS011;5278;42.656;23.374;2023-02-28T06:50:08;40.63;;;21.90;;
10461;SDS011;5278;42.656;23.374;2023-02-28T06:52:38;36.00;;;22.70;;
10461;SDS011;5278;42.656;23.374;2023-02-28T06:55:08;35.67;;;21.77;;
10461;SDS011;5278;42.656;23.374;2023-02-28T06:57:36;38.70;;;24.10;;
10461;SDS011;5278;42.656;23.374;2023-02-28T07:00:04;35.10;;;23.13;;
10461;SDS011;5278;42.656;23.374;2023-02-28T07:02:33;31.27;;;21.60;;
10461;SDS011;5278;42.656;23.374;2023-02-28T07:05:02;32.60;;;22.83;;
10461;SDS011;5278;42.656;23.374;2023-02-28T07:07:30;28.97;;;20.27;;
10461;SDS011;5278;42.656;23.374;2023-02-28T07:09:57;26.80;;;19.20;;
10461;SDS011;5278;42.656;23.374;2023-02-28T07:12:26;29.83;;;20.37;;
10461;SDS011;5278;42.656;23.374;2023-02-28T07:14:53;37.97;;;24.00;;
10461;SDS011;5278;42.656;23.374;2023-02-28T07:17:20;34.87;;;22.80;;
10461;SDS011;5278;42.656;23.374;2023-02-28T07:19:47;34.07;;;21.10;;
10461;SDS011;5278;42.656;23.374;2023-02-28T07:22:15;32.20;;;20.83;;
10461;SDS011;5278;42.656;23.374;2023-02-28T07:24:42;27.83;;;17.57;;
10461;SDS011;5278;42.656;23.374;2023-02-28T07:27:09;33.70;;;22.00;;
10461;SDS011;5278;42.656;23.374;2023-02-28T07:29:39;32.83;;;20.17;;
10461;SDS011;5278;42.656;23.374;2023-02-28T07:32:06;26.73;;;16.20;;
10461;SDS011;5278;42.656;23.374;2023-02-28T07:34:33;26.03;;;16.33;;
10461;SDS011;5278;42.656;23.374;2023-02-28T07:37:00;26.23;;;16.90;;
10461;SDS011;5278;42.656;23.374;2023-02-28T07:39:28;27.00;;;16.90;;
10461;SDS011;5278;42.656;23.374;2023-02-28T07:41:55;23.23;;;15.67;;
10461;SDS011;5278;42.656;23.374;2023-02-28T07:44:24;24.10;;;15.80;;
10461;SDS011;5278;42.656;23.374;2023-02-28T07:46:53;22.60;;;15.43;;
10461;SDS011;5278;42.656;23.374;2023-02-28T07:49:21;24.30;;;15.50;;
10461;SDS011;5278;42.656;23.374;2023-02-28T07:51:47;28.30;;;15.70;;
10461;SDS011;5278;42.656;23.374;2023-02-28T07:54:14;25.20;;;15.53;;
10461;SDS011;5278;42.656;23.374;2023-02-28T07:56:41;26.10;;;16.27;;
10461;SDS011;5278;42.656;23.374;2023-02-28T07:59:08;27.60;;;16.80;;
10461;SDS011;5278;42.656;23.374;2023-02-28T08:01:37;17.53;;;13.07;;
10461;SDS011;5278;42.656;23.374;2023-02-28T08:04:05;45.43;;;26.90;;
10461;SDS011;5278;42.656;23.374;2023-02-28T08:06:32;28.90;;;18.00;;
10461;SDS011;5278;42.656;23.374;2023-02-28T08:08:59;29.03;;;17.03;;
10461;SDS011;5278;42.656;23.374;2023-02-28T08:11:26;21.03;;;14.87;;
10461;SDS011;5278;42.656;23.374;2023-02-28T08:13:54;23.37;;;16.60;;
10461;SDS011;5278;42.656;23.374;2023-02-28T08:16:21;28.73;;;18.63;;
10461;SDS011;5278;42.656;23.374;2023-02-28T08:18:49;29.60;;;18.83;;
10461;SDS011;5278;42.656;23.374;2023-02-28T08:21:18;24.03;;;16.97;;
10461;SDS011;5278;42.656;23.374;2023-02-28T08:23:46;26.73;;;15.53;;
10461;SDS011;5278;42.656;23.374;2023-02-28T08:26:14;20.27;;;13.53;;
10461;SDS011;5278;42.656;23.374;2023-02-28T08:28:43;23.10;;;14.10;;
10461;SDS011;5278;42.656;23.374;2023-02-28T08:31:10;23.30;;;14.57;;
10461;SDS011;5278;42.656;23.374;2023-02-28T08:33:38;23.13;;;13.33;;
10461;SDS011;5278;42.656;23.374;2023-02-28T08:36:06;25.27;;;15.47;;
10461;SDS011;5278;42.656;23.374;2023-02-28T08:38:34;28.33;;;18.83;;
10461;SDS011;5278;42.656;23.374;2023-02-28T08:41:03;27.17;;;13.93;;
10461;SDS011;5278;42.656;23.374;2023-02-28T08:43:32;22.20;;;14.13;;
10461;SDS011;5278;42.656;23.374;2023-02-28T08:45:59;20.63;;;14.57;;
10461;SDS011;5278;42.656;23.374;2023-02-28T08:48:27;25.50;;;15.93;;
10461;SDS011;5278;42.656;23.374;2023-02-28T08:50:55;23.93;;;14.97;;
10461;SDS011;5278;42.656;23.374;2023-02-28T08:53:22;24.43;;;14.77;;
10461;SDS011;5278;42.656;23.374;2023-02-28T08:56:02;22.30;;;13.80;;
10461;SDS011;5278;42.656;23.374;2023-02-28T08:58:30;21.93;;;13.80;;
10461;SDS011;5278;42.656;23.374;2023-02-28T09:00:58;26.17;;;16.40;;
10461;SDS011;5278;42.656;23.374;2023-02-28T09:03:25;28.60;;;14.17;;
10461;SDS011;5278;42.656;23.374;2023-02-28T09:05:56;29.70;;;13.60;;
10461;SDS011;5278;42.656;23.374;2023-02-28T09:08:25;21.17;;;12.57;;
10461;SDS011;5278;42.656;23.374;2023-02-28T09:10:57;30.73;;;18.47;;
10461;SDS011;5278;42.656;23.374;2023-02-28T09:13:26;26.63;;;17.10;;
10461;SDS011;5278;42.656;23.374;2023-02-28T09:15:54;20.40;;;14.07;;
10461;SDS011;5278;42.656;23.374;2023-02-28T09:18:24;27.53;;;14.00;;
10461;SDS011;5278;42.656;23.374;2023-02-28T09:20:51;22.77;;;14.50;;
10461;SDS011;5278;42.656;23.374;2023-02-28T09:23:18;19.60;;;13.13;;
10461;SDS011;5278;42.656;23.374;2023-02-28T09:25:46;20.57;;;12.17;;
10461;SDS011;5278;42.656;23.374;2023-02-28T09:28:15;23.70;;;13.17;;
10461;SDS011;5278;42.656;23.374;2023-02-28T09:30:46;23.67;;;12.50;;
10461;SDS011;5278;42.656;23.374;2023-02-28T09:33:15;18.60;;;11.80;;
10461;SDS011;5278;42.656;23.374;2023-02-28T09:35:45;22.13;;;13.80;;
10461;SDS011;5278;42.656;23.374;2023-02-28T09:38:12;19.30;;;12.30;;
10461;SDS011;5278;42.656;23.374;2023-02-28T09:40:44;27.43;;;13.77;;
10461;SDS011;5278;42.656;23.374;2023-02-28T09:43:19;23.60;;;13.43;;
10461;SDS011;5278;42.656;23.374;2023-02-28T09:45:51;19.07;;;13.97;;
10461;SDS011;5278;42.656;23.374;2023-02-28T09:48:25;43.70;;;23.97;;
10461;SDS011;5278;42.656;23.374;2023-02-28T09:50:59;20.73;;;12.97;;
10461;SDS011;5278;42.656;23.374;2023-02-28T09:53:30;21.07;;;12.73;;
10461;SDS011;5278;42.656;23.374;2023-02-28T09:56:01;25.27;;;15.80;;
10461;SDS011;5278;42.656;23.374;2023-02-28T09:58:32;19.00;;;12.20;;
10461;SDS011;5278;42.656;23.374;2023-02-28T10:01:06;16.83;;;11.20;;
10461;SDS011;5278;42.656;23.374;2023-02-28T10:03:38;25.30;;;12.03;;
10461;SDS011;5278;42.656;23.374;2023-02-28T10:06:10;18.53;;;11.40;;
10461;SDS011;5278;42.656;23.374;2023-02-28T10:08:41;15.87;;;10.73;;
10461;SDS011;5278;42.656;23.374;2023-02-28T10:11:14;28.90;;;11.90;;
10461;SDS011;5278;42.656;23.374;2023-02-28T10:13:46;16.97;;;11.27;;
10461;SDS011;5278;42.656;23.374;2023-02-28T10:16:23;20.03;;;12.07;;
10461;SDS011;5278;42.656;23.374;2023-02-28T10:18:56;16.27;;;10.67;;
10461;SDS011;5278;42.656;23.374;2023-02-28T10:21:30;20.00;;;12.20;;
10461;SDS011;5278;42.656;23.374;2023-02-28T10:24:03;16.73;;;10.20;;
10461;SDS011;5278;42.656;23.374;2023-02-28T10:26:38;25.17;;;11.40;;
10461;SDS011;5278;42.656;23.374;2023-02-28T10:29:08;35.00;;;19.27;;
10461;SDS011;5278;42.656;23.374;2023-02-28T10:31:37;17.47;;;10.37;;
10461;SDS011;5278;42.656;23.374;2023-02-28T10:34:05;17.27;;;9.33;;
10461;SDS011;5278;42.656;23.374;2023-02-28T10:36:32;22.53;;;11.40;;
10461;SDS011;5278;42.656;23.374;2023-02-28T10:39:02;15.60;;;10.13;;
10461;SDS011;5278;42.656;23.374;2023-02-28T10:42:01;21.67;;;10.33;;
10461;SDS011;5278;42.656;23.374;2023-02-28T10:44:28;18.03;;;9.70;;
10461;SDS011;5278;42.656;23.374;2023-02-28T10:46:57;23.83;;;12.87;;
10461;SDS011;5278;42.656;23.374;2023-02-28T10:49:25;17.57;;;10.67;;
10461;SDS011;5278;42.656;23.374;2023-02-28T10:51:55;18.53;;;10.80;;
10461;SDS011;5278;42.656;23.374;2023-02-28T10:54:24;24.43;;;13.33;;
10461;SDS011;5278;42.656;23.374;2023-02-28T10:57:06;16.20;;;9.43;;
10461;SDS011;5278;42.656;23.374;2023-02-28T10:59:35;19.10;;;11.00;;
10461;SDS011;5278;42.656;23.374;2023-02-28T11:02:08;17.20;;;11.20;;
10461;SDS011;5278;42.656;23.374;2023-02-28T11:04:56;28.23;;;14.80;;
10461;SDS011;5278;42.656;23.374;2023-02-28T11:07:24;16.67;;;12.07;;
10461;SDS011;5278;42.656;23.374;2023-02-28T11:09:53;20.53;;;10.00;;
10461;SDS011;5278;42.656;23.374;2023-02-28T11:12:23;20.77;;;10.93;;
10461;SDS011;5278;42.656;23.374;2023-02-28T11:14:54;18.83;;;11.33;;
10461;SDS011;5278;42.656;23.374;2023-02-28T11:17:25;20.63;;;11.87;;
10461;SDS011;5278;42.656;23.374;2023-02-28T11:19:55;16.67;;;11.03;;
10461;SDS011;5278;42.656;23.374;2023-02-28T11:22:24;16.17;;;10.60;;
10461;SDS011;5278;42.656;23.374;2023-02-28T11:24:55;19.70;;;11.60;;
10461;SDS011;5278;42.656;23.374;2023-02-28T11:27:24;20.10;;;12.30;;
10461;SDS011;5278;42.656;23.374;2023-02-28T11:30:11;14.83;;;10.40;;
10461;SDS011;5278;42.656;23.374;2023-02-28T11:32:53;18.17;;;11.17;;
10461;SDS011;5278;42.656;23.374;2023-02-28T11:35:21;20.53;;;11.43;;
10461;SDS011;5278;42.656;23.374;2023-02-28T11:37:53;20.07;;;10.80;;
10461;SDS011;5278;42.656;23.374;2023-02-28T11:40:21;23.00;;;12.27;;
10461;SDS011;5278;42.656;23.374;2023-02-28T11:42:57;22.13;;;13.93;;
10461;SDS011;5278;42.656;23.374;2023-02-28T11:45:36;18.90;;;12.57;;
10461;SDS011;5278;42.656;23.374;2023-02-28T11:48:14;19.80;;;12.83;;
10461;SDS011;5278;42.656;23.374;2023-02-28T11:51:01;18.17;;;11.23;;
10461;SDS011;5278;42.656;23.374;2023-02-28T11:56:38;21.63;;;13.77;;
10461;SDS011;5278;42.656;23.374;2023-02-28T11:59:13;24.50;;;14.63;;
10461;SDS011;5278;42.656;23.374;2023-02-28T12:02:01;24.40;;;14.43;;
10461;SDS011;5278;42.656;23.374;2023-02-28T12:04:50;22.43;;;12.80;;
10461;SDS011;5278;42.656;23.374;2023-02-28T12:07:26;22.03;;;14.30;;
10461;SDS011;5278;42.656;23.374;2023-02-28T12:10:02;28.00;;;15.83;;
10461;SDS011;5278;42.656;23.374;2023-02-28T12:12:41;19.40;;;12.27;;
10461;SDS011;5278;42.656;23.374;2023-02-28T12:15:31;19.93;;;11.50;;
10461;SDS011;5278;42.656;23.374;2023-02-28T12:18:15;22.93;;;12.73;;
10461;SDS011;5278;42.656;23.374;2023-02-28T12:21:01;23.63;;;12.40;;
10461;SDS011;5278;42.656;23.374;2023-02-28T12:23:44;18.57;;;12.73;;
10461;SDS011;5278;42.656;23.374;2023-02-28T12:26:27;20.23;;;12.63;;
10461;SDS011;5278;42.656;23.374;2023-02-28T12:29:02;25.13;;;13.33;;
10461;SDS011;5278;42.656;23.374;2023-02-28T12:31:38;19.33;;;11.60;;
10461;SDS011;5278;42.656;23.374;2023-02-28T12:34:12;24.90;;;12.03;;
10461;SDS011;5278;42.656;23.374;2023-02-28T12:36:48;18.53;;;10.93;;
10461;SDS011;5278;42.656;23.374;2023-02-28T12:39:18;19.10;;;11.70;;
10461;SDS011;5278;42.656;23.374;2023-02-28T12:41:53;18.33;;;11.20;;
10461;SDS011;5278;42.656;23.374;2023-02-28T12:44:26;17.83;;;11.13;;
10461;SDS011;5278;42.656;23.374;2023-02-28T12:46:59;16.37;;;9.63;;
10461;SDS011;5278;42.656;23.374;2023-02-28T12:49:31;23.90;;;11.40;;
10461;SDS011;5278;42.656;23.374;2023-02-28T12:52:02;16.17;;;10.20;;
10461;SDS011;5278;42.656;23.374;2023-02-28T12:54:32;16.50;;;10.70;;
10461;SDS011;5278;42.656;23.374;2023-02-28T12:57:06;19.47;;;11.80;;
10461;SDS011;5278;42.656;23.374;2023-02-28T12:59:39;21.00;;;12.43;;
10461;SDS011;5278;42.656;23.374;2023-02-28T13:05:47;21.97;;;11.33;;
10461;SDS011;5278;42.656;23.374;2023-02-28T13:11:27;23.37;;;12.63;;
10461;SDS011;5278;42.656;23.374;2023-02-28T13:14:00;16.83;;;10.57;;
10461;SDS011;5278;42.656;23.374;2023-02-28T13:16:42;18.10;;;11.50;;
10461;SDS011;5278;42.656;23.374;2023-02-28T13:19:19;16.03;;;11.03;;
10461;SDS011;5278;42.656;23.374;2023-02-28T13:21:50;16.73;;;11.63;;
10461;SDS011;5278;42.656;23.374;2023-02-28T13:24:39;15.97;;;10.73;;
10461;SDS011;5278;42.656;23.374;2023-02-28T13:30:49;14.23;;;9.07;;
10461;SDS011;5278;42.656;23.374;2023-02-28T13:33:21;19.67;;;9.60;;
10461;SDS011;5278;42.656;23.374;2023-02-28T13:36:01;15.43;;;8.83;;
10461;SDS011;5278;42.656;23.374;2023-02-28T13:38:35;21.77;;;10.00;;
10461;SDS011;5278;42.656;23.374;2023-02-28T13:44:09;13.83;;;8.97;;
10461;SDS011;5278;42.656;23.374;2023-02-28T13:49:49;21.57;;;9.90;;
10461;SDS011;5278;42.656;23.374;2023-02-28T13:52:19;23.20;;;10.53;;
10461;SDS011;5278;42.656;23.374;2023-02-28T13:57:53;14.60;;;8.73;;
10461;SDS011;5278;42.656;23.374;2023-02-28T14:00:35;15.50;;;9.30;;
10461;SDS011;5278;42.656;23.374;2023-02-28T14:03:19;16.43;;;10.30;;
10461;SDS011;5278;42.656;23.374;2023-02-28T14:06:14;18.37;;;10.93;;
10461;SDS011;5278;42.656;23.374;2023-02-28T14:08:55;16.50;;;9.53;;
10461;SDS011;5278;42.656;23.374;2023-02-28T14:11:34;17.37;;;10.47;;
10461;SDS011;5278;42.656;23.374;2023-02-28T14:14:04;17.93;;;9.83;;
10461;SDS011;5278;42.656;23.374;2023-02-28T14:16:36;13.20;;;9.17;;
10461;SDS011;5278;42.656;23.374;2023-02-28T14:19:10;19.37;;;11.37;;
10461;SDS011;5278;42.656;23.374;2023-02-28T14:21:43;19.37;;;9.37;;
10461;SDS011;5278;42.656;23.374;2023-02-28T14:24:23;17.40;;;11.47;;
10461;SDS011;5278;42.656;23.374;2023-02-28T14:30:04;16.97;;;9.60;;
10461;SDS011;5278;42.656;23.374;2023-02-28T14:32:44;24.97;;;10.70;;
10461;SDS011;5278;42.656;23.374;2023-02-28T14:35:18;21.97;;;13.77;;
10461;SDS011;5278;42.656;23.374;2023-02-28T14:37:54;17.30;;;9.87;;
10461;SDS011;5278;42.656;23.374;2023-02-28T14:40:26;18.77;;;10.30;;
10461;SDS011;5278;42.656;23.374;2023-02-28T14:42:56;17.00;;;10.37;;
10461;SDS011;5278;42.656;23.374;2023-02-28T14:45:29;21.53;;;11.90;;
10461;SDS011;5278;42.656;23.374;2023-02-28T14:47:59;14.50;;;9.27;;
10461;SDS011;5278;42.656;23.374;2023-02-28T14:50:29;16.23;;;9.60;;
10461;SDS011;5278;42.656;23.374;2023-02-28T14:52:58;13.70;;;9.00;;
10461;SDS011;5278;42.656;23.374;2023-02-28T14:55:28;16.87;;;9.53;;
10461;SDS011;5278;42.656;23.374;2023-02-28T14:57:57;18.67;;;10.57;;
10461;SDS011;5278;42.656;23.374;2023-02-28T15:00:26;15.00;;;10.63;;
10461;SDS011;5278;42.656;23.374;2023-02-28T15:02:59;14.90;;;9.80;;
10461;SDS011;5278;42.656;23.374;2023-02-28T15:05:28;20.83;;;10.47;;
10461;SDS011;5278;42.656;23.374;2023-02-28T15:08:09;22.70;;;10.83;;
10461;SDS011;5278;42.656;23.374;2023-02-28T15:10:40;14.83;;;9.67;;
10461;SDS011;5278;42.656;23.374;2023-02-28T15:13:11;18.07;;;9.37;;
10461;SDS011;5278;42.656;23.374;2023-02-28T15:15:44;14.03;;;8.80;;